Time;durP1;ratioP1;P1;durP2;ratioP2;P2;SDS_P1;SDS_P2;PMS_P1;PMS_P2;Temp;Humidity;BMP_temperature;BMP_pressure;BME280_temperature;BME280_humidity;BME280_pressure;Samples;Min_cycle;Max_cycle;Signal;HPM_P1;HPM_P2
2020/06/26 00:00:06;;;;;;;4.8;2.4;;;;;;;16.6;75.74219;938.3858;;;;
2020/06/26 00:02:31;;;;;;;7.3;2.9;;;;;;;16.63;75.83789;938.3391;;;;
2020/06/26 00:04:56;;;;;;;8.3;3;;;;;;;16.64;75.66895;938.3108;;;;
2020/06/26 00:07:21;;;;;;;4.4;2.4;;;;;;;16.7;75.51563;938.2845;;;;
2020/06/26 00:09:46;;;;;;;5.8;2.7;;;;;;;16.72;75.40332;938.2561;;;;
2020/06/26 00:12:12;;;;;;;4.6;2.3;;;;;;;16.67;75.05957;938.3259;;;;
2020/06/26 00:14:37;;;;;;;4.9;2.5;;;;;;;16.62;74.87695;938.2966;;;;
2020/06/26 00:17:03;;;;;;;4.1;2.4;;;;;;;16.64;75.14551;938.241;;;;
2020/06/26 00:19:28;;;;;;;2.9;2.2;;;;;;;16.56;74.84375;938.2151;;;;
2020/06/26 00:21:53;;;;;;;4.3;2.4;;;;;;;16.36;75.42188;938.2609;;;;
2020/06/26 00:24:18;;;;;;;5.2;2.5;;;;;;;16.24;76.4541;938.2191;;;;
2020/06/26 00:26:44;;;;;;;5.5;2.8;;;;;;;16.09;76.94824;938.2503;;;;
2020/06/26 00:29:09;;;;;;;2.8;2.5;;;;;;;15.9;77.75977;938.252;;;;
2020/06/26 00:31:37;;;;;;;5;2.7;;;;;;;15.79;78.45703;938.1655;;;;
2020/06/26 00:34:02;;;;;;;5.8;2.6;;;;;;;15.89;78.05762;938.2073;;;;
2020/06/26 00:36:27;;;;;;;6.8;2.8;;;;;;;15.94;77.83594;938.1753;;;;
2020/06/26 00:38:52;;;;;;;4.9;2.8;;;;;;;15.98;77.82129;938.1669;;;;
2020/06/26 00:41:19;;;;;;;6.2;2.8;;;;;;;15.94;77.90527;938.1809;;;;
2020/06/26 00:43:44;;;;;;;7.6;2.7;;;;;;;15.91;77.92188;938.0922;;;;
2020/06/26 00:46:09;;;;;;;6.1;2.8;;;;;;;15.96;77.97754;938.0892;;;;
2020/06/26 00:48:37;;;;;;;5.5;2.9;;;;;;;16.07;77.56934;938.1188;;;;
2020/06/26 00:51:02;;;;;;;12.1;3;;;;;;;16.1;77.14648;938.1714;;;;
2020/06/26 00:53:27;;;;;;;7.5;2.3;;;;;;;16.13;76.86328;938.073;;;;
2020/06/26 00:55:52;;;;;;;4.3;2.8;;;;;;;16.12;76.97754;938.0884;;;;
2020/06/26 00:58:17;;;;;;;6.3;2.8;;;;;;;16.17;76.87012;938.0572;;;;
2020/06/26 01:00:43;;;;;;;6.5;3;;;;;;;16.17;76.66016;938.0605;;;;
2020/06/26 01:03:08;;;;;;;6.2;2.7;;;;;;;16.08;77.15625;938.0422;;;;
2020/06/26 01:05:33;;;;;;;9.1;3.1;;;;;;;16.05;76.96484;938.0411;;;;
2020/06/26 01:07:58;;;;;;;6.5;2.9;;;;;;;15.96;77.48047;938.0844;;;;
2020/06/26 01:10:27;;;;;;;7.1;3.1;;;;;;;15.98;77.32227;938.0344;;;;
2020/06/26 01:12:55;;;;;;;6.9;3;;;;;;;15.98;77.33496;938.0262;;;;
2020/06/26 01:15:20;;;;;;;7.9;3.1;;;;;;;15.91;77.75977;938.0625;;;;
2020/06/26 01:17:48;;;;;;;8;3.7;;;;;;;15.91;77.61035;938.0882;;;;
2020/06/26 01:20:14;;;;;;;7.7;3.3;;;;;;;15.95;77.74707;938.0925;;;;
2020/06/26 01:22:39;;;;;;;6.6;3.3;;;;;;;15.97;77.65625;937.9582;;;;
2020/06/26 01:25:04;;;;;;;6.8;3.1;;;;;;;15.94;77.55859;938.0292;;;;
2020/06/26 01:27:32;;;;;;;7.2;3.2;;;;;;;15.89;77.76855;937.992;;;;
2020/06/26 01:29:58;;;;;;;6.7;3.2;;;;;;;15.88;77.7666;938.0178;;;;
2020/06/26 01:32:25;;;;;;;6.8;3.2;;;;;;;15.89;77.85059;938.0081;;;;
2020/06/26 01:34:50;;;;;;;7;3.2;;;;;;;15.82;78.02148;937.9005;;;;
2020/06/26 01:37:16;;;;;;;4.4;2.7;;;;;;;15.69;78.44922;938.0108;;;;
2020/06/26 01:39:41;;;;;;;6.6;2.8;;;;;;;15.46;79.71191;937.9749;;;;
2020/06/26 01:42:11;;;;;;;6.6;2.6;;;;;;;15.42;79.90332;937.9407;;;;
2020/06/26 01:44:36;;;;;;;6.1;3.1;;;;;;;15.53;79.5752;937.9196;;;;
2020/06/26 01:47:05;;;;;;;4.5;2.9;;;;;;;15.66;79.06738;937.9453;;;;
2020/06/26 01:49:30;;;;;;;5.8;2.9;;;;;;;15.78;78.66211;937.9239;;;;
2020/06/26 01:51:57;;;;;;;5.8;2.6;;;;;;;15.73;78.28418;937.9059;;;;
2020/06/26 01:54:23;;;;;;;5.4;2.6;;;;;;;15.64;78.64941;937.838;;;;
2020/06/26 01:56:48;;;;;;;7;2.9;;;;;;;15.66;78.65137;937.8313;;;;
2020/06/26 01:59:13;;;;;;;5.8;2.7;;;;;;;15.57;78.90234;937.8566;;;;
2020/06/26 02:01:38;;;;;;;6.5;3;;;;;;;15.5;79.24707;937.8597;;;;
2020/06/26 02:04:06;;;;;;;8;2.9;;;;;;;15.21;80.58008;937.8658;;;;
2020/06/26 02:06:31;;;;;;;8.4;3.3;;;;;;;15.27;80.55469;937.8552;;;;
2020/06/26 02:08:56;;;;;;;6.9;3.2;;;;;;;15.29;80.38672;937.8887;;;;
2020/06/26 02:11:22;;;;;;;7.6;3;;;;;;;15.22;80.78906;937.8549;;;;
2020/06/26 02:13:48;;;;;;;10.1;3.3;;;;;;;15.24;80.7002;937.8323;;;;
2020/06/26 02:16:13;;;;;;;4.3;2.7;;;;;;;15.34;80.19922;937.8257;;;;
2020/06/26 02:18:41;;;;;;;6.4;2.8;;;;;;;15.23;80.67578;937.8083;;;;
2020/06/26 02:21:06;;;;;;;7.6;3.1;;;;;;;15.29;80.47949;937.7612;;;;
2020/06/26 02:23:35;;;;;;;6.1;2.8;;;;;;;15.28;80.44336;937.7997;;;;
2020/06/26 02:26:00;;;;;;;4.5;3.1;;;;;;;15.24;80.85059;937.7825;;;;
2020/06/26 02:28:25;;;;;;;6.6;2.8;;;;;;;15.33;80.23145;937.7728;;;;
2020/06/26 02:30:50;;;;;;;5.8;2.8;;;;;;;15.29;80.37402;937.7042;;;;
2020/06/26 02:33:19;;;;;;;4.9;2.6;;;;;;;15.36;80.09961;937.6641;;;;
2020/06/26 02:35:44;;;;;;;4.1;2.9;;;;;;;15.4;80.10645;937.6052;;;;
2020/06/26 02:38:11;;;;;;;6.9;3.2;;;;;;;15.36;80.30566;937.7389;;;;
2020/06/26 02:40:36;;;;;;;6.2;3.2;;;;;;;15.36;80.27148;937.7548;;;;
2020/06/26 02:43:01;;;;;;;6.6;3;;;;;;;15.41;80.29297;937.7239;;;;
2020/06/26 02:45:29;;;;;;;4.6;3;;;;;;;15.42;80.03027;937.7377;;;;
2020/06/26 02:47:56;;;;;;;6.4;3.4;;;;;;;15.31;80.24023;937.7104;;;;
2020/06/26 02:50:26;;;;;;;6.3;3.1;;;;;;;15.26;80.40332;937.7141;;;;
2020/06/26 02:52:51;;;;;;;8.4;3.1;;;;;;;15.16;81.0332;937.6906;;;;
2020/06/26 02:55:16;;;;;;;4.4;2.8;;;;;;;15.14;81.28223;937.6652;;;;
2020/06/26 02:57:45;;;;;;;6.8;3.3;;;;;;;15.2;81.16699;937.7344;;;;
2020/06/26 03:00:10;;;;;;;7.3;3.1;;;;;;;15.34;80.54492;937.7045;;;;
2020/06/26 03:02:35;;;;;;;14.5;3.7;;;;;;;15.33;80.39355;937.7551;;;;
2020/06/26 03:05:00;;;;;;;6.3;3.5;;;;;;;15.33;80.3125;937.7551;;;;
2020/06/26 03:07:25;;;;;;;6.3;3.1;;;;;;;15.12;81.27832;937.7416;;;;
2020/06/26 03:09:53;;;;;;;9.1;3.8;;;;;;;15.11;81.5293;937.7545;;;;
2020/06/26 03:12:19;;;;;;;9.4;3.4;;;;;;;15.21;80.9834;937.7688;;;;
2020/06/26 03:14:45;;;;;;;8.8;3.5;;;;;;;15.24;80.72363;937.728;;;;
2020/06/26 03:17:10;;;;;;;6.7;3.1;;;;;;;15.27;80.60156;937.7238;;;;
2020/06/26 03:19:35;;;;;;;8.9;3.5;;;;;;;14.91;82.08203;937.7158;;;;
2020/06/26 03:22:01;;;;;;;6.7;3.1;;;;;;;14.89;82.44531;937.6855;;;;
2020/06/26 03:24:26;;;;;;;5.6;3;;;;;;;14.89;82.45703;937.7352;;;;
2020/06/26 03:26:52;;;;;;;8.5;3.5;;;;;;;14.95;82.37695;937.7003;;;;
2020/06/26 03:29:17;;;;;;;4.7;2.9;;;;;;;15;81.82227;937.7431;;;;
2020/06/26 03:31:42;;;;;;;9.8;3.6;;;;;;;15.11;81.49609;937.7313;;;;
2020/06/26 03:34:09;;;;;;;6.4;3.3;;;;;;;15.13;81.18652;937.7752;;;;
2020/06/26 03:36:34;;;;;;;8.2;3.3;;;;;;;14.95;82.09961;937.6569;;;;
2020/06/26 03:39:04;;;;;;;5.9;3.5;;;;;;;14.93;81.98145;937.7381;;;;
2020/06/26 03:41:32;;;;;;;7.4;3.4;;;;;;;14.96;81.90527;937.7314;;;;
2020/06/26 03:43:57;;;;;;;6.7;3.1;;;;;;;14.89;82.11328;937.6655;;;;
2020/06/26 03:46:23;;;;;;;6.4;3.2;;;;;;;14.81;82.36328;937.6546;;;;
2020/06/26 03:48:48;;;;;;;5.4;3.5;;;;;;;14.67;83.15527;937.6468;;;;
2020/06/26 03:51:13;;;;;;;5.6;3.6;;;;;;;14.78;82.70215;937.63;;;;
2020/06/26 03:53:40;;;;;;;8.5;3.7;;;;;;;14.58;83.35547;937.5919;;;;
2020/06/26 03:56:05;;;;;;;8.8;3.8;;;;;;;14.63;83.57324;937.5975;;;;
2020/06/26 03:58:32;;;;;;;6.4;3.6;;;;;;;14.62;83.2373;937.6231;;;;
2020/06/26 04:02:30;;;;;;;8.8;3.9;;;;;;;14.56;83.35254;937.5608;;;;
2020/06/26 04:04:55;;;;;;;13;4.1;;;;;;;14.63;83.12402;937.5686;;;;
2020/06/26 04:07:21;;;;;;;9;3.7;;;;;;;14.73;82.78516;937.543;;;;
2020/06/26 04:09:46;;;;;;;10.2;3.8;;;;;;;14.82;82.13184;937.5586;;;;
2020/06/26 04:12:11;;;;;;;7.5;3.8;;;;;;;14.61;82.99414;937.55;;;;
2020/06/26 04:14:37;;;;;;;8.9;3.9;;;;;;;14.72;82.78418;937.5237;;;;
2020/06/26 04:17:05;;;;;;;8.9;3.6;;;;;;;14.82;82.21289;937.5394;;;;
2020/06/26 04:19:30;;;;;;;15.5;4.5;;;;;;;14.95;81.51172;937.5648;;;;
2020/06/26 04:21:55;;;;;;;5.9;3.8;;;;;;;14.97;81.44629;937.5581;;;;
2020/06/26 04:24:24;;;;;;;10.4;4.1;;;;;;;15.15;80.68359;937.5938;;;;
2020/06/26 04:26:50;;;;;;;7.7;3.9;;;;;;;15.07;80.49512;937.5825;;;;
2020/06/26 04:29:15;;;;;;;9.4;3.7;;;;;;;15;80.83984;937.5828;;;;
2020/06/26 04:31:42;;;;;;;7.3;3.7;;;;;;;14.99;81.13965;937.5676;;;;
2020/06/26 04:34:07;;;;;;;6.7;3.3;;;;;;;15.03;80.9502;937.582;;;;
2020/06/26 04:36:35;;;;;;;6.5;3.4;;;;;;;14.93;81.32422;937.577;;;;
2020/06/26 04:39:00;;;;;;;6.8;3.4;;;;;;;15.05;81.65723;937.5441;;;;
2020/06/26 04:41:25;;;;;;;5.8;3.6;;;;;;;14.98;81.18262;937.4852;;;;
2020/06/26 04:43:51;;;;;;;9.5;3.8;;;;;;;14.99;81.37988;937.5989;;;;
2020/06/26 04:46:16;;;;;;;9.8;3.7;;;;;;;15.01;81.29102;937.5826;;;;
2020/06/26 04:48:41;;;;;;;9.3;3.6;;;;;;;15.04;81.20605;937.5153;;;;
2020/06/26 04:51:06;;;;;;;9.9;3.5;;;;;;;15.12;80.93262;937.5291;;;;
2020/06/26 04:53:31;;;;;;;8.3;3.5;;;;;;;15.3;80.21582;937.5019;;;;
2020/06/26 04:56:01;;;;;;;8.5;3.2;;;;;;;15.3;80.00586;937.4891;;;;
2020/06/26 04:58:26;;;;;;;9.3;3.5;;;;;;;15.21;80.46387;937.4263;;;;
2020/06/26 05:00:56;;;;;;;14.5;3.7;;;;;;;15.52;79.64453;937.4494;;;;
2020/06/26 05:03:21;;;;;;;18.5;4.3;;;;;;;15.78;78.8584;937.4342;;;;
2020/06/26 05:05:46;;;;;;;16.4;4;;;;;;;16.24;77.28711;937.4863;;;;
2020/06/26 05:08:11;;;;;;;11.6;3;;;;;;;16.9;74.42578;937.4712;;;;
2020/06/26 05:10:40;;;;;;;8;3.1;;;;;;;17.4;73.61719;937.4511;;;;
2020/06/26 05:13:06;;;;;;;6.7;2.7;;;;;;;17.89;72.2959;937.4711;;;;
2020/06/26 05:15:33;;;;;;;12.1;3;;;;;;;18.46;69.3877;937.44;;;;
2020/06/26 05:17:58;;;;;;;8.1;3.2;;;;;;;18.5;67.25488;937.4833;;;;
2020/06/26 05:20:26;;;;;;;13.6;3;;;;;;;18.85;66.61133;937.3915;;;;
2020/06/26 05:22:51;;;;;;;8.8;3.3;;;;;;;18.92;66.25977;937.3688;;;;
2020/06/26 05:25:17;;;;;;;12.6;3.5;;;;;;;19.22;66.64355;937.3894;;;;
2020/06/26 05:27:42;;;;;;;12.2;3.2;;;;;;;20.53;62.40234;937.3553;;;;
2020/06/26 05:30:07;;;;;;;5.7;2.3;;;;;;;21.41;58.5459;937.34;;;;
2020/06/26 05:32:35;;;;;;;6.3;2.7;;;;;;;21.66;57.30469;937.3286;;;;
2020/06/26 05:35:00;;;;;;;6.3;2.2;;;;;;;21.74;56.83301;937.2205;;;;
2020/06/26 05:37:25;;;;;;;12.8;2.8;;;;;;;21.85;56.61328;937.2502;;;;
2020/06/26 05:39:50;;;;;;;6.2;2.6;;;;;;;22.26;55.16406;937.2817;;;;
2020/06/26 05:42:15;;;;;;;14.1;3.1;;;;;;;22.81;56.57227;937.2399;;;;
2020/06/26 05:44:42;;;;;;;5.3;2.1;;;;;;;23.76;51.67871;937.2566;;;;
2020/06/26 05:47:06;;;;;;;8.4;2.1;;;;;;;23.86;51.20898;937.1758;;;;
2020/06/26 05:49:32;;;;;;;8.1;2.3;;;;;;;24.38;48.98242;937.1528;;;;
2020/06/26 05:51:59;;;;;;;10.9;2.5;;;;;;;24.62;48.37207;937.1772;;;;
2020/06/26 05:54:24;;;;;;;5.6;1.9;;;;;;;24.25;48.1084;937.2185;;;;
2020/06/26 05:56:49;;;;;;;6.6;2.3;;;;;;;23.51;51.97949;937.2592;;;;
2020/06/26 05:59:14;;;;;;;6.2;2.2;;;;;;;22.57;54.86133;937.2198;;;;
2020/06/26 06:01:47;;;;;;;6.3;2;;;;;;;23.22;52.35742;937.2397;;;;
2020/06/26 06:04:19;;;;;;;5.4;2.1;;;;;;;22.7;55.73633;937.1841;;;;
2020/06/26 06:06:44;;;;;;;5.1;2.3;;;;;;;22.21;56.72949;937.1735;;;;
2020/06/26 06:09:09;;;;;;;9.6;2.5;;;;;;;21.99;56.86621;937.2353;;;;
2020/06/26 06:11:38;;;;;;;9.6;3.1;;;;;;;21.87;56.82617;937.1301;;;;
2020/06/26 06:14:02;;;;;;;5;1.8;;;;;;;22.74;54.75488;937.1395;;;;
2020/06/26 06:16:28;;;;;;;7.3;2;;;;;;;23.67;50.59863;937.175;;;;
2020/06/26 06:18:57;;;;;;;6.8;2.5;;;;;;;23.59;52.3418;937.1959;;;;
2020/06/26 06:21:22;;;;;;;8.7;2.5;;;;;;;22.75;53.68848;937.1138;;;;
2020/06/26 06:23:50;;;;;;;7.5;2.5;;;;;;;21.74;58.37988;937.0964;;;;
2020/06/26 06:26:15;;;;;;;5.5;2.6;;;;;;;21.51;60.92578;937.0636;;;;
2020/06/26 06:28:40;;;;;;;5.1;2.2;;;;;;;21.82;60.25293;937.1156;;;;
2020/06/26 06:31:10;;;;;;;9.1;2.4;;;;;;;22.47;58.42871;937.028;;;;
2020/06/26 06:33:34;;;;;;;5.6;2;;;;;;;22.91;58.6748;936.9207;;;;
2020/06/26 06:36:00;;;;;;;3.7;1.7;;;;;;;23.12;53.55566;936.9067;;;;
2020/06/26 06:38:25;;;;;;;2.5;2;;;;;;;22.6;55.75879;937.0829;;;;
2020/06/26 06:40:51;;;;;;;6.3;2.2;;;;;;;22.78;57.67188;937.0356;;;;
2020/06/26 06:43:16;;;;;;;4.3;2.1;;;;;;;22.49;58.90039;937.0776;;;;
2020/06/26 06:45:47;;;;;;;5.4;2.6;;;;;;;22.04;62.22852;937.2875;;;;
2020/06/26 06:48:17;;;;;;;6;2.9;;;;;;;21.73;64.39941;937.442;;;;
2020/06/26 06:50:42;;;;;;;8.8;3.3;;;;;;;21.41;65.39355;937.4119;;;;
2020/06/26 06:53:11;;;;;;;8.1;3.2;;;;;;;20.55;66.36523;937.3452;;;;
2020/06/26 06:55:36;;;;;;;8.2;2.9;;;;;;;19.58;70.02051;937.3895;;;;
2020/06/26 06:58:02;;;;;;;7.9;3.8;;;;;;;19.05;74.8252;937.5676;;;;
2020/06/26 07:00:32;;;;;;;13.4;4.5;;;;;;;19.16;76.76563;937.6207;;;;
2020/06/26 07:03:01;;;;;;;8.3;3.6;;;;;;;19.26;75.8291;937.6346;;;;
2020/06/26 07:05:26;;;;;;;7.9;3.5;;;;;;;19.03;77.33691;937.5552;;;;
2020/06/26 07:07:54;;;;;;;9.5;4;;;;;;;18.91;78.00293;937.7031;;;;
2020/06/26 07:10:20;;;;;;;8;3.6;;;;;;;18.87;78.48438;937.8138;;;;
2020/06/26 07:12:45;;;;;;;9.7;3.9;;;;;;;18.71;78.8623;938.1238;;;;
2020/06/26 07:15:14;;;;;;;7.1;3.9;;;;;;;18.69;79.97754;938.2402;;;;
2020/06/26 07:17:40;;;;;;;7;4.1;;;;;;;18.71;79.99121;938.1439;;;;
2020/06/26 07:20:06;;;;;;;10.8;4.7;;;;;;;18.62;80.06738;938.0734;;;;
2020/06/26 07:22:31;;;;;;;9.7;4.1;;;;;;;18.55;79.98633;938.1347;;;;
2020/06/26 07:24:56;;;;;;;7;4.4;;;;;;;18.49;80.68359;938.098;;;;
2020/06/26 07:27:23;;;;;;;8.4;4.7;;;;;;;18.45;80.14258;938.1038;;;;
2020/06/26 07:29:49;;;;;;;7.9;4.3;;;;;;;18.48;80.3916;938.091;;;;
2020/06/26 07:32:14;;;;;;;8;4.4;;;;;;;18.43;82.62598;938.075;;;;
2020/06/26 07:34:40;;;;;;;6.8;4.4;;;;;;;18.47;83.04102;937.9944;;;;
2020/06/26 07:37:06;;;;;;;8.7;4.4;;;;;;;18.56;82.26758;937.9247;;;;
2020/06/26 07:39:33;;;;;;;9.1;4.9;;;;;;;18.81;82.10449;937.9745;;;;
2020/06/26 07:41:58;;;;;;;9;3.9;;;;;;;19.33;81.25684;937.9099;;;;
2020/06/26 07:44:25;;;;;;;8.1;3.6;;;;;;;19.85;79.45215;937.9639;;;;
2020/06/26 07:46:50;;;;;;;6.2;3.1;;;;;;;20.52;75.44922;937.8871;;;;
2020/06/26 07:49:15;;;;;;;6.6;3.1;;;;;;;21.08;74.23438;937.8571;;;;
2020/06/26 07:51:43;;;;;;;5.3;3.1;;;;;;;21.6;75.25879;937.8775;;;;
2020/06/26 07:54:09;;;;;;;7.1;3;;;;;;;22.22;69.54688;937.9059;;;;
2020/06/26 07:56:35;;;;;;;8.4;3;;;;;;;22.79;67.44043;937.8295;;;;
2020/06/26 07:59:00;;;;;;;4;2.9;;;;;;;22.78;62.95605;937.8628;;;;
2020/06/26 08:01:25;;;;;;;4.7;2.9;;;;;;;22.38;65.91309;937.8864;;;;
2020/06/26 08:03:53;;;;;;;5.9;3.1;;;;;;;22.1;69.72852;937.9927;;;;
2020/06/26 08:06:18;;;;;;;5.3;3.2;;;;;;;21.83;69.80371;938.0809;;;;
2020/06/26 08:08:45;;;;;;;4.4;3;;;;;;;21.61;71.64258;938.1066;;;;
2020/06/26 08:11:11;;;;;;;6.5;3.2;;;;;;;21.31;70.43457;938.1203;;;;
2020/06/26 08:13:37;;;;;;;5.2;3.5;;;;;;;20.58;73.70605;938.1501;;;;
2020/06/26 08:16:02;;;;;;;6.3;3.9;;;;;;;20.35;75.96875;938.1294;;;;
2020/06/26 08:18:27;;;;;;;5.5;3.7;;;;;;;20.26;77.2959;938.0843;;;;
2020/06/26 08:20:56;;;;;;;6.3;3.9;;;;;;;20.2;77.45996;937.9991;;;;
2020/06/26 08:23:21;;;;;;;8.2;3.9;;;;;;;20.05;78.25098;938.0007;;;;
2020/06/26 08:25:47;;;;;;;6.4;4.4;;;;;;;19.85;79.41699;938.0212;;;;
2020/06/26 08:28:12;;;;;;;7;4.4;;;;;;;19.63;79.79688;938.017;;;;
2020/06/26 08:30:41;;;;;;;9.6;4.7;;;;;;;19.49;81.10059;938.0854;;;;
2020/06/26 08:33:06;;;;;;;7;4.3;;;;;;;19.65;80.20801;938.0723;;;;
2020/06/26 08:35:31;;;;;;;10.1;5.2;;;;;;;19.84;82.55176;938.1323;;;;
2020/06/26 08:37:56;;;;;;;7.8;4.7;;;;;;;20.06;83.14258;938.0942;;;;
2020/06/26 08:40:27;;;;;;;7.5;4;;;;;;;20.37;81.04004;938.0811;;;;
2020/06/26 08:42:54;;;;;;;6.7;3.8;;;;;;;20.28;79.25;938.145;;;;
2020/06/26 08:45:19;;;;;;;7.6;3.7;;;;;;;20.67;79.76367;938.1785;;;;
2020/06/26 08:47:45;;;;;;;5.8;3.4;;;;;;;21.43;76.49316;938.1321;;;;
2020/06/26 08:50:11;;;;;;;6.9;3;;;;;;;22.52;73.64258;938.0942;;;;
2020/06/26 08:52:36;;;;;;;5.3;3;;;;;;;23.33;67.89941;938.1521;;;;
2020/06/26 08:55:02;;;;;;;4.9;2.5;;;;;;;24.17;62.77441;938.0967;;;;
2020/06/26 08:57:27;;;;;;;6;2.7;;;;;;;24.93;62.24414;938.0956;;;;
2020/06/26 08:59:53;;;;;;;5.2;2.7;;;;;;;25.41;61.54297;938.0845;;;;
2020/06/26 09:02:18;;;;;;;5.7;2.2;;;;;;;26.37;58.44434;938.067;;;;
2020/06/26 09:04:45;;;;;;;4.7;2.3;;;;;;;27.31;58.08008;938.0239;;;;
2020/06/26 09:07:10;;;;;;;3.8;2.1;;;;;;;28.3;54.74902;937.8767;;;;
2020/06/26 09:09:36;;;;;;;3.4;2;;;;;;;27.95;51.66602;937.7756;;;;
2020/06/26 09:12:01;;;;;;;5.1;1.8;;;;;;;27.69;50.75781;937.9377;;;;
2020/06/26 09:14:31;;;;;;;3.9;1.7;;;;;;;27.73;48.78027;937.883;;;;
2020/06/26 09:16:56;;;;;;;2.7;1.8;;;;;;;25.99;54.98926;937.9412;;;;
2020/06/26 09:19:22;;;;;;;2.9;1.6;;;;;;;25.76;56.58105;937.7589;;;;
2020/06/26 09:21:47;;;;;;;2.8;1.7;;;;;;;26.02;54.98145;937.861;;;;
2020/06/26 09:24:12;;;;;;;4.2;1.9;;;;;;;26.34;56.1084;937.9221;;;;
2020/06/26 09:26:39;;;;;;;3.1;1.6;;;;;;;26.58;55.31055;937.8412;;;;
2020/06/26 09:29:05;;;;;;;2;1.6;;;;;;;26.74;52.62793;937.7653;;;;
2020/06/26 09:31:34;;;;;;;4.4;1.8;;;;;;;26.83;56.39551;937.7881;;;;
2020/06/26 09:33:59;;;;;;;1.8;1.3;;;;;;;26.86;52.32324;937.8106;;;;
2020/06/26 09:36:24;;;;;;;3.3;1.6;;;;;;;26.03;52.10742;937.8013;;;;
2020/06/26 09:38:49;;;;;;;2.2;1.6;;;;;;;26.21;51.67969;937.7808;;;;
2020/06/26 09:41:16;;;;;;;3.5;1.6;;;;;;;26.49;55.41699;937.8267;;;;
2020/06/26 09:43:41;;;;;;;3.8;1.4;;;;;;;26.68;58.15332;937.8582;;;;
2020/06/26 09:46:09;;;;;;;4;1.5;;;;;;;26.89;49.20996;937.8063;;;;
2020/06/26 09:48:35;;;;;;;4.2;1.6;;;;;;;26.06;51.8877;937.8086;;;;
2020/06/26 09:51:01;;;;;;;3;1.5;;;;;;;25.68;54.4541;937.7714;;;;
2020/06/26 09:53:26;;;;;;;2.9;1.4;;;;;;;25.83;50.18164;937.6724;;;;
2020/06/26 09:55:51;;;;;;;2.1;1.2;;;;;;;25.93;51.30566;937.7;;;;
2020/06/26 09:58:18;;;;;;;3;1.6;;;;;;;25.61;50.91406;937.6548;;;;
2020/06/26 10:00:43;;;;;;;1.6;1.3;;;;;;;25.78;50.23438;937.692;;;;
2020/06/26 10:03:08;;;;;;;2.1;1.3;;;;;;;25.62;49.79102;937.6562;;;;
2020/06/26 10:05:36;;;;;;;2.2;1.5;;;;;;;25.8;50.83984;937.6071;;;;
2020/06/26 10:08:01;;;;;;;2.3;1.3;;;;;;;25.44;49.01563;937.5371;;;;
2020/06/26 10:10:28;;;;;;;2;1.3;;;;;;;24.84;51.43945;937.5483;;;;
2020/06/26 10:12:53;;;;;;;2.7;1.7;;;;;;;24.35;52.57324;937.5463;;;;
2020/06/26 10:15:18;;;;;;;2.2;1.6;;;;;;;24.16;54.06934;937.5168;;;;
2020/06/26 10:17:44;;;;;;;2.1;1.4;;;;;;;23.99;53.23633;937.5128;;;;
2020/06/26 10:20:09;;;;;;;1.8;1.4;;;;;;;24.12;52.08594;937.5196;;;;
2020/06/26 10:22:36;;;;;;;2.9;1.4;;;;;;;24.21;52.93359;937.5764;;;;
2020/06/26 10:25:01;;;;;;;3.8;1.6;;;;;;;24.43;52.54688;937.5357;;;;
2020/06/26 10:27:26;;;;;;;2.6;1.5;;;;;;;24.59;53.92188;937.5317;;;;
2020/06/26 10:29:53;;;;;;;2.3;1.4;;;;;;;24.64;51.33398;937.5549;;;;
2020/06/26 10:32:19;;;;;;;1.9;1.4;;;;;;;24.92;53.06543;937.5258;;;;
2020/06/26 10:34:46;;;;;;;2.9;1.4;;;;;;;25.33;50.70508;937.5061;;;;
2020/06/26 10:37:11;;;;;;;2.1;1.5;;;;;;;25.75;52.63184;937.4615;;;;
2020/06/26 10:39:36;;;;;;;2;1.2;;;;;;;26.17;50.32715;937.5059;;;;
2020/06/26 10:42:04;;;;;;;1.6;1.3;;;;;;;26.26;47.12891;937.4815;;;;
2020/06/26 10:44:31;;;;;;;1.6;1.3;;;;;;;25.63;48.43457;937.4667;;;;
2020/06/26 10:46:56;;;;;;;1.6;1.4;;;;;;;25.61;47.78223;937.4437;;;;
2020/06/26 10:49:21;;;;;;;1.4;1.2;;;;;;;25.23;50.25684;937.3311;;;;
2020/06/26 10:51:46;;;;;;;2.1;1.4;;;;;;;25.17;50.06152;937.2756;;;;
2020/06/26 10:54:11;;;;;;;1.8;1.4;;;;;;;25.37;48.29883;937.3342;;;;
2020/06/26 10:56:36;;;;;;;2;1.3;;;;;;;25.27;49.84766;937.3209;;;;
2020/06/26 10:59:01;;;;;;;3.6;1.4;;;;;;;25.27;49.87207;937.3403;;;;
2020/06/26 11:01:30;;;;;;;2.3;1.2;;;;;;;25.14;48.45215;937.3937;;;;
2020/06/26 11:03:55;;;;;;;2.5;1.5;;;;;;;24.97;50.01465;937.4109;;;;
2020/06/26 11:06:20;;;;;;;6.3;2.6;;;;;;;24.88;52.93066;937.4942;;;;
2020/06/26 11:08:45;;;;;;;3.2;1.6;;;;;;;24.71;55.19727;937.5258;;;;
2020/06/26 11:11:14;;;;;;;2;1.4;;;;;;;24.36;49.84082;937.4556;;;;
2020/06/26 11:13:39;;;;;;;3.6;1.5;;;;;;;24.25;53.94043;937.5089;;;;
2020/06/26 11:16:05;;;;;;;1.9;1.3;;;;;;;24.13;51.41699;937.4294;;;;
2020/06/26 11:18:30;;;;;;;2.6;1.6;;;;;;;24.04;52.9834;937.5132;;;;
2020/06/26 11:20:55;;;;;;;4.6;1.6;;;;;;;24.02;51.95703;937.5382;;;;
2020/06/26 11:23:20;;;;;;;4.8;1.5;;;;;;;24.06;50.99609;937.5748;;;;
2020/06/26 11:25:47;;;;;;;2.9;1.7;;;;;;;23.93;50.78125;937.6008;;;;
2020/06/26 11:28:20;;;;;;;4.4;1.5;;;;;;;23.93;52.06445;937.6122;;;;
2020/06/26 11:30:45;;;;;;;3.1;1.7;;;;;;;24.06;54.75195;937.7908;;;;
2020/06/26 11:33:10;;;;;;;3.7;1.8;;;;;;;24.02;52.09863;937.9619;;;;
2020/06/26 11:35:36;;;;;;;2.9;1.6;;;;;;;23.96;52.9502;938.0289;;;;
2020/06/26 11:38:01;;;;;;;2.5;1.8;;;;;;;23.94;57.64453;938.1063;;;;
2020/06/26 11:40:27;;;;;;;3.2;1.8;;;;;;;23.61;60.94336;938.2301;;;;
2020/06/26 11:42:52;;;;;;;2.9;1.6;;;;;;;23.3;60.95801;938.3095;;;;
2020/06/26 11:45:22;;;;;;;3.8;1.9;;;;;;;23.2;61.43848;938.2919;;;;
2020/06/26 11:47:48;;;;;;;2.1;1.9;;;;;;;23.07;65.30957;938.2963;;;;
2020/06/26 11:50:14;;;;;;;2.5;2.2;;;;;;;23.07;67.44824;938.2792;;;;
2020/06/26 11:52:40;;;;;;;2.8;1.7;;;;;;;22.94;63.07129;938.253;;;;
2020/06/26 11:55:05;;;;;;;3.2;1.8;;;;;;;23.02;65.00977;938.2336;;;;
2020/06/26 11:57:30;;;;;;;4.9;2.1;;;;;;;23.18;66.9707;938.3236;;;;
2020/06/26 11:59:56;;;;;;;6.3;2.2;;;;;;;23.34;68.54883;938.3394;;;;
2020/06/26 12:02:21;;;;;;;4;1.8;;;;;;;23.54;65.22559;938.2034;;;;
2020/06/26 12:04:46;;;;;;;3.2;2.2;;;;;;;23.71;67.35547;938.1467;;;;
2020/06/26 12:07:11;;;;;;;3;2;;;;;;;23.82;65.45605;938.0986;;;;
2020/06/26 12:09:36;;;;;;;3.7;2.3;;;;;;;23.89;67.59766;938.1082;;;;
2020/06/26 12:12:01;;;;;;;4.5;2.2;;;;;;;23.48;68.67383;938.1051;;;;
2020/06/26 12:14:26;;;;;;;5.9;2.3;;;;;;;23.33;71.11816;938.1669;;;;
2020/06/26 12:16:53;;;;;;;6.2;2.6;;;;;;;23.14;71.71289;938.2449;;;;
2020/06/26 12:19:18;;;;;;;8.5;2.6;;;;;;;22.84;71.58203;938.3346;;;;
2020/06/26 12:21:43;;;;;;;5.7;2.4;;;;;;;23.05;69.23047;938.3531;;;;
2020/06/26 12:24:08;;;;;;;6.9;2.6;;;;;;;22.97;69.34766;938.5005;;;;
2020/06/26 12:26:44;;;;;;;4.6;2.6;;;;;;;23.07;69.02246;938.4041;;;;
2020/06/26 12:29:13;;;;;;;4.3;2.6;;;;;;;23.06;70.4082;938.389;;;;
2020/06/26 12:31:37;;;;;;;4.2;2.8;;;;;;;23.13;68.83203;938.3799;;;;
2020/06/26 12:34:03;;;;;;;3.5;2.4;;;;;;;22.76;69.2207;938.4656;;;;
2020/06/26 12:36:28;;;;;;;3.9;2.5;;;;;;;22.74;69.41797;938.4402;;;;
2020/06/26 12:38:53;;;;;;;5.8;2.8;;;;;;;22.67;71.64746;938.4738;;;;
2020/06/26 12:41:18;;;;;;;3.3;2.5;;;;;;;22.56;71.87793;938.4019;;;;
2020/06/26 12:43:44;;;;;;;4.7;2.7;;;;;;;22.34;73.9541;938.4581;;;;
2020/06/26 12:46:10;;;;;;;3.5;2.6;;;;;;;22.4;73.46973;938.4219;;;;
2020/06/26 12:48:36;;;;;;;3.8;2.8;;;;;;;22.3;73.77051;938.3226;;;;
2020/06/26 12:51:01;;;;;;;3.2;2.2;;;;;;;22.41;73.13184;938.3324;;;;
2020/06/26 12:53:27;;;;;;;3.9;2.6;;;;;;;22.38;72.62305;938.2321;;;;
2020/06/26 12:55:52;;;;;;;5.7;2.1;;;;;;;22.11;65.71875;938.2464;;;;
2020/06/26 12:58:18;;;;;;;4.5;2;;;;;;;21.86;67.46484;938.2413;;;;
2020/06/26 13:00:43;;;;;;;4.4;2;;;;;;;22.11;66.99805;938.286;;;;
2020/06/26 13:03:09;;;;;;;3.4;2.2;;;;;;;22.33;66.4209;938.165;;;;
2020/06/26 13:05:34;;;;;;;7.1;2.4;;;;;;;22.32;65.02344;938.2229;;;;
2020/06/26 13:08:01;;;;;;;2.9;2.1;;;;;;;22.25;68.23926;938.2966;;;;
2020/06/26 13:10:26;;;;;;;5.4;2.3;;;;;;;22.36;67.7168;938.2352;;;;
2020/06/26 13:12:51;;;;;;;5.4;2.1;;;;;;;22.36;67.34082;938.249;;;;
2020/06/26 13:15:21;;;;;;;5.8;2.4;;;;;;;22.52;66.08594;938.1835;;;;
2020/06/26 13:17:46;;;;;;;5.6;2.5;;;;;;;22.57;66.32813;938.1515;;;;
2020/06/26 13:20:11;;;;;;;4.8;2.8;;;;;;;22.57;67.2666;938.098;;;;
2020/06/26 13:22:38;;;;;;;4.4;2.3;;;;;;;22.57;67.53711;938.2157;;;;
2020/06/26 13:25:03;;;;;;;4.1;2.3;;;;;;;22.83;67.48145;938.2354;;;;
2020/06/26 13:27:28;;;;;;;5.2;2.3;;;;;;;22.89;66.32813;938.1289;;;;
2020/06/26 13:29:53;;;;;;;7.3;2.7;;;;;;;23.15;65.87305;938.0869;;;;
2020/06/26 13:32:18;;;;;;;4.1;2.5;;;;;;;22.95;68.98047;937.9952;;;;
2020/06/26 13:34:44;;;;;;;3.6;1.9;;;;;;;23.1;65.46777;937.9691;;;;
2020/06/26 13:37:09;;;;;;;2.8;1.8;;;;;;;23.22;63.56934;937.824;;;;
2020/06/26 13:39:40;;;;;;;2.9;1.5;;;;;;;23.29;59.39551;937.753;;;;
2020/06/26 13:41:59;;;;;;;4.6;1.5;;;;;;;23.28;59.65234;937.7283;;;;
2020/06/26 13:44:24;;;;;;;5.9;1.8;;;;;;;23.36;58.27539;937.5611;;;;
2020/06/26 13:46:49;;;;;;;2;1.6;;;;;;;23.61;57.59082;937.5731;;;;
2020/06/26 13:49:15;;;;;;;2.2;1.4;;;;;;;23.8;56.08594;937.5767;;;;
2020/06/26 13:51:40;;;;;;;2.2;1.4;;;;;;;24.11;56.05273;937.5003;;;;
2020/06/26 13:54:06;;;;;;;2;1.3;;;;;;;24.29;52.4707;937.4872;;;;
2020/06/26 13:56:31;;;;;;;2.8;1.5;;;;;;;24.33;53.24219;937.3772;;;;
2020/06/26 13:58:58;;;;;;;2.6;1.6;;;;;;;24.42;54.49023;937.3689;;;;
2020/06/26 14:01:22;;;;;;;2.5;1.6;;;;;;;24.77;53.0459;937.2739;;;;
2020/06/26 14:03:48;;;;;;;2.1;1.5;;;;;;;25.17;48.82129;937.2441;;;;
2020/06/26 14:06:13;;;;;;;3;1.5;;;;;;;25.19;48.44531;937.1174;;;;
2020/06/26 14:08:38;;;;;;;3.5;1.7;;;;;;;25.33;49.11035;937.1091;;;;
2020/06/26 14:11:03;;;;;;;3.9;1.6;;;;;;;25.64;52.40527;937.0822;;;;
2020/06/26 14:13:29;;;;;;;2.2;1.3;;;;;;;25.72;45.97266;936.8794;;;;
2020/06/26 14:15:55;;;;;;;2.5;1.5;;;;;;;25.75;47.95117;936.9003;;;;